sensor_id;sensor_type;location;lat;lon;timestamp;pressure;altitude;pressure_sealevel;temperature;humidity
1726;BME280;41776;48.260;8.928;2023-12-28T00:00:19;52236.44;;;-145.69;41.36
1726;BME280;41776;48.260;8.928;2023-12-28T00:02:46;52230.50;;;-145.69;41.08
1726;BME280;41776;48.260;8.928;2023-12-28T00:05:14;52256.25;;;-145.69;40.65
1726;BME280;41776;48.260;8.928;2023-12-28T00:07:41;52262.19;;;-145.69;41.12
1726;BME280;41776;48.260;8.928;2023-12-28T00:10:08;52214.66;;;-145.69;40.94
1726;BME280;41776;48.260;8.928;2023-12-28T00:12:34;52236.44;;;-145.69;41.23
1726;BME280;41776;48.260;8.928;2023-12-28T00:15:00;52238.44;;;-145.69;38.51
1726;BME280;41776;48.260;8.928;2023-12-28T00:17:27;52252.28;;;-145.69;38.72
1726;BME280;41776;48.260;8.928;2023-12-28T00:19:53;52262.19;;;-145.69;39.29
1726;BME280;41776;48.260;8.928;2023-12-28T00:22:22;52218.63;;;-145.69;38.56
1726;BME280;41776;48.260;8.928;2023-12-28T00:24:48;52236.44;;;-145.69;38.51
1726;BME280;41776;48.260;8.928;2023-12-28T00:27:15;52226.53;;;-145.69;39.19
1726;BME280;41776;48.260;8.928;2023-12-28T00:29:41;52226.53;;;-145.69;39.02
1726;BME280;41776;48.260;8.928;2023-12-28T00:32:08;52246.34;;;-145.69;39.30
1726;BME280;41776;48.260;8.928;2023-12-28T00:34:34;52234.47;;;-145.69;39.65
1726;BME280;41776;48.260;8.928;2023-12-28T00:37:01;52204.75;;;-145.69;39.20
1726;BME280;41776;48.260;8.928;2023-12-28T00:39:29;52234.47;;;-145.69;39.27
1726;BME280;41776;48.260;8.928;2023-12-28T00:41:55;52232.50;;;-145.69;37.98
1726;BME280;41776;48.260;8.928;2023-12-28T00:44:22;52250.31;;;-145.69;38.21
1726;BME280;41776;48.260;8.928;2023-12-28T00:46:48;52234.47;;;-145.69;38.42
1726;BME280;41776;48.260;8.928;2023-12-28T00:49:15;52216.66;;;-145.69;38.41
1726;BME280;41776;48.260;8.928;2023-12-28T00:51:41;52188.91;;;-145.69;38.79
1726;BME280;41776;48.260;8.928;2023-12-28T00:54:08;52250.31;;;-145.69;37.68
1726;BME280;41776;48.260;8.928;2023-12-28T00:56:36;52216.66;;;-145.69;37.01
1726;BME280;41776;48.260;8.928;2023-12-28T00:59:02;52202.78;;;-145.69;38.39
1726;BME280;41776;48.260;8.928;2023-12-28T01:01:29;52228.53;;;-145.69;38.41
1726;BME280;41776;48.260;8.928;2023-12-28T01:03:57;52206.75;;;-145.69;38.61
1726;BME280;41776;48.260;8.928;2023-12-28T01:06:23;52216.66;;;-145.69;39.08
1726;BME280;41776;48.260;8.928;2023-12-28T01:08:53;52246.34;;;-145.69;39.91
1726;BME280;41776;48.260;8.928;2023-12-28T01:11:19;52202.78;;;-145.69;38.61
1726;BME280;41776;48.260;8.928;2023-12-28T01:13:51;52206.75;;;-145.69;38.25
1726;BME280;41776;48.260;8.928;2023-12-28T01:16:17;52218.63;;;-145.69;38.50
1726;BME280;41776;48.260;8.928;2023-12-28T01:18:44;52218.63;;;-145.69;38.26
1726;BME280;41776;48.260;8.928;2023-12-28T01:21:10;52230.50;;;-145.69;38.46
1726;BME280;41776;48.260;8.928;2023-12-28T01:23:36;52234.47;;;-145.69;37.87
1726;BME280;41776;48.260;8.928;2023-12-28T01:26:03;52216.66;;;-145.69;37.47
1726;BME280;41776;48.260;8.928;2023-12-28T01:28:30;52186.94;;;-145.69;36.80
1726;BME280;41776;48.260;8.928;2023-12-28T01:30:57;52206.75;;;-145.69;36.37
1726;BME280;41776;48.260;8.928;2023-12-28T01:33:24;52194.88;;;-145.69;36.00
1726;BME280;41776;48.260;8.928;2023-12-28T01:35:50;52186.94;;;-145.69;35.11
1726;BME280;41776;48.260;8.928;2023-12-28T01:38:17;52222.59;;;-145.69;35.61
1726;BME280;41776;48.260;8.928;2023-12-28T01:40:44;52190.91;;;-145.69;35.43
1726;BME280;41776;48.260;8.928;2023-12-28T01:43:11;52169.13;;;-145.69;35.36
1726;BME280;41776;48.260;8.928;2023-12-28T01:45:37;52250.31;;;-145.69;35.67
1726;BME280;41776;48.260;8.928;2023-12-28T01:48:05;52226.53;;;-145.69;35.70
1726;BME280;41776;48.260;8.928;2023-12-28T01:50:32;52196.84;;;-145.69;36.24
1726;BME280;41776;48.260;8.928;2023-12-28T01:53:00;52226.53;;;-145.69;36.34
1726;BME280;41776;48.260;8.928;2023-12-28T01:55:28;52210.72;;;-145.69;36.03
1726;BME280;41776;48.260;8.928;2023-12-28T01:57:57;52202.78;;;-145.69;36.55
1726;BME280;41776;48.260;8.928;2023-12-28T02:00:24;52236.44;;;-145.69;36.66
1726;BME280;41776;48.260;8.928;2023-12-28T02:02:51;52224.56;;;-145.69;36.41
1726;BME280;41776;48.260;8.928;2023-12-28T02:05:19;52210.72;;;-145.69;36.44
1726;BME280;41776;48.260;8.928;2023-12-28T02:07:46;52200.81;;;-145.69;36.66
1726;BME280;41776;48.260;8.928;2023-12-28T02:10:12;52228.53;;;-145.69;37.03
1726;BME280;41776;48.260;8.928;2023-12-28T02:12:39;52208.72;;;-145.69;36.97
1726;BME280;41776;48.260;8.928;2023-12-28T02:15:06;52204.75;;;-145.69;37.00
1726;BME280;41776;48.260;8.928;2023-12-28T02:17:36;52218.63;;;-145.69;36.80
1726;BME280;41776;48.260;8.928;2023-12-28T02:20:05;52210.72;;;-145.69;36.50
1726;BME280;41776;48.260;8.928;2023-12-28T02:22:34;52214.66;;;-145.69;36.55
1726;BME280;41776;48.260;8.928;2023-12-28T02:25:06;52196.84;;;-145.69;36.26
1726;BME280;41776;48.260;8.928;2023-12-28T02:27:34;52210.72;;;-145.69;35.59
1726;BME280;41776;48.260;8.928;2023-12-28T02:30:01;52177.03;;;-145.69;35.35
1726;BME280;41776;48.260;8.928;2023-12-28T02:32:40;52190.91;;;-145.69;35.57
1726;BME280;41776;48.260;8.928;2023-12-28T02:35:16;52173.09;;;-145.69;35.39
1726;BME280;41776;48.260;8.928;2023-12-28T02:37:44;52179.03;;;-145.69;35.83
1726;BME280;41776;48.260;8.928;2023-12-28T02:40:15;52222.59;;;-145.69;36.52
1726;BME280;41776;48.260;8.928;2023-12-28T02:42:42;52198.81;;;-145.69;35.73
1726;BME280;41776;48.260;8.928;2023-12-28T02:45:09;52192.88;;;-145.69;36.06
1726;BME280;41776;48.260;8.928;2023-12-28T02:47:35;52198.81;;;-145.69;35.39
1726;BME280;41776;48.260;8.928;2023-12-28T02:50:02;52188.91;;;-145.69;35.23
1726;BME280;41776;48.260;8.928;2023-12-28T02:52:28;52194.88;;;-145.69;35.22
1726;BME280;41776;48.260;8.928;2023-12-28T02:54:55;52202.78;;;-145.69;34.97
1726;BME280;41776;48.260;8.928;2023-12-28T02:57:23;52196.84;;;-145.69;35.71
1726;BME280;41776;48.260;8.928;2023-12-28T02:59:49;52167.13;;;-145.69;35.54
1726;BME280;41776;48.260;8.928;2023-12-28T03:02:15;52208.72;;;-145.69;35.73
1726;BME280;41776;48.260;8.928;2023-12-28T03:04:42;52163.19;;;-145.69;34.49
1726;BME280;41776;48.260;8.928;2023-12-28T03:07:08;52230.50;;;-145.69;35.32
1726;BME280;41776;48.260;8.928;2023-12-28T03:09:35;52184.97;;;-145.69;34.43
1726;BME280;41776;48.260;8.928;2023-12-28T03:12:04;52186.94;;;-145.69;35.01
1726;BME280;41776;48.260;8.928;2023-12-28T03:14:32;52177.03;;;-145.69;34.97
1726;BME280;41776;48.260;8.928;2023-12-28T03:16:58;52186.94;;;-145.69;35.09
1726;BME280;41776;48.260;8.928;2023-12-28T03:19:24;52192.88;;;-145.69;34.88
1726;BME280;41776;48.260;8.928;2023-12-28T03:21:51;52198.81;;;-145.69;35.59
1726;BME280;41776;48.260;8.928;2023-12-28T03:24:17;52216.66;;;-145.69;35.53
1726;BME280;41776;48.260;8.928;2023-12-28T03:26:44;52179.03;;;-145.69;35.46
1726;BME280;41776;48.260;8.928;2023-12-28T03:29:10;52200.81;;;-145.69;35.34
1726;BME280;41776;48.260;8.928;2023-12-28T03:31:40;52171.09;;;-145.69;36.06
1726;BME280;41776;48.260;8.928;2023-12-28T03:34:06;52214.66;;;-145.69;35.96
1726;BME280;41776;48.260;8.928;2023-12-28T03:36:33;52218.63;;;-145.69;35.62
1726;BME280;41776;48.260;8.928;2023-12-28T03:38:59;52208.72;;;-145.69;36.03
1726;BME280;41776;48.260;8.928;2023-12-28T03:41:26;52167.13;;;-145.69;36.51
1726;BME280;41776;48.260;8.928;2023-12-28T03:43:52;52165.16;;;-145.69;36.90
1726;BME280;41776;48.260;8.928;2023-12-28T03:46:18;52198.81;;;-145.69;36.73
1726;BME280;41776;48.260;8.928;2023-12-28T03:48:46;52175.06;;;-145.69;36.75
1726;BME280;41776;48.260;8.928;2023-12-28T03:51:13;52186.94;;;-145.69;36.64
1726;BME280;41776;48.260;8.928;2023-12-28T03:53:40;52232.50;;;-145.69;36.60
1726;BME280;41776;48.260;8.928;2023-12-28T03:56:06;52190.91;;;-145.69;36.46
1726;BME280;41776;48.260;8.928;2023-12-28T03:58:33;52186.94;;;-145.69;36.42
1726;BME280;41776;48.260;8.928;2023-12-28T04:00:59;52226.53;;;-145.69;36.21
1726;BME280;41776;48.260;8.928;2023-12-28T04:03:26;52159.22;;;-145.69;36.38
1726;BME280;41776;48.260;8.928;2023-12-28T04:05:53;52163.19;;;-145.69;36.33
1726;BME280;41776;48.260;8.928;2023-12-28T04:08:20;52167.13;;;-145.69;37.04
1726;BME280;41776;48.260;8.928;2023-12-28T04:10:46;52196.84;;;-145.69;36.67
1726;BME280;41776;48.260;8.928;2023-12-28T04:13:13;52181.00;;;-145.69;37.12
1726;BME280;41776;48.260;8.928;2023-12-28T04:15:42;52196.84;;;-145.69;37.24
1726;BME280;41776;48.260;8.928;2023-12-28T04:18:09;52194.88;;;-145.69;37.66
1726;BME280;41776;48.260;8.928;2023-12-28T04:20:35;52212.69;;;-145.69;36.77
1726;BME280;41776;48.260;8.928;2023-12-28T04:23:03;52179.03;;;-145.69;37.18
1726;BME280;41776;48.260;8.928;2023-12-28T04:25:30;52190.91;;;-145.69;37.42
1726;BME280;41776;48.260;8.928;2023-12-28T04:27:56;52210.72;;;-145.69;37.29
1726;BME280;41776;48.260;8.928;2023-12-28T04:30:22;52220.59;;;-145.69;38.03
1726;BME280;41776;48.260;8.928;2023-12-28T04:32:49;52173.09;;;-145.69;37.93
1726;BME280;41776;48.260;8.928;2023-12-28T04:35:15;52167.13;;;-145.69;38.23
1726;BME280;41776;48.260;8.928;2023-12-28T04:37:42;52210.72;;;-145.69;37.97
1726;BME280;41776;48.260;8.928;2023-12-28T04:40:10;52198.81;;;-145.69;37.99
1726;BME280;41776;48.260;8.928;2023-12-28T04:42:39;52196.84;;;-145.69;38.04
1726;BME280;41776;48.260;8.928;2023-12-28T04:45:07;52188.91;;;-145.69;38.27
1726;BME280;41776;48.260;8.928;2023-12-28T04:47:33;52202.78;;;-145.69;38.38
1726;BME280;41776;48.260;8.928;2023-12-28T04:50:00;52179.03;;;-145.69;38.42
1726;BME280;41776;48.260;8.928;2023-12-28T04:52:27;52202.78;;;-145.69;38.78
1726;BME280;41776;48.260;8.928;2023-12-28T04:54:54;52190.91;;;-145.69;38.73
1726;BME280;41776;48.260;8.928;2023-12-28T04:57:22;52192.88;;;-145.69;39.60
1726;BME280;41776;48.260;8.928;2023-12-28T04:59:50;52204.75;;;-145.69;39.04
1726;BME280;41776;48.260;8.928;2023-12-28T05:02:16;52179.03;;;-145.69;39.19
1726;BME280;41776;48.260;8.928;2023-12-28T05:04:43;52198.81;;;-145.69;40.17
1726;BME280;41776;48.260;8.928;2023-12-28T05:07:09;52181.00;;;-145.69;40.13
1726;BME280;41776;48.260;8.928;2023-12-28T05:09:36;52210.72;;;-145.69;40.47
1726;BME280;41776;48.260;8.928;2023-12-28T05:12:03;52202.78;;;-145.69;40.49
1726;BME280;41776;48.260;8.928;2023-12-28T05:14:31;52190.91;;;-145.69;41.07
1726;BME280;41776;48.260;8.928;2023-12-28T05:16:58;52194.88;;;-145.69;41.26
1726;BME280;41776;48.260;8.928;2023-12-28T05:19:24;52181.00;;;-145.69;41.64
1726;BME280;41776;48.260;8.928;2023-12-28T05:21:51;52192.88;;;-145.69;41.76
1726;BME280;41776;48.260;8.928;2023-12-28T05:24:17;52181.00;;;-145.69;41.57
1726;BME280;41776;48.260;8.928;2023-12-28T05:26:44;52214.66;;;-145.69;41.54
1726;BME280;41776;48.260;8.928;2023-12-28T05:29:10;52214.66;;;-145.69;41.85
1726;BME280;41776;48.260;8.928;2023-12-28T05:31:38;52186.94;;;-145.69;42.66
1726;BME280;41776;48.260;8.928;2023-12-28T05:34:04;52188.91;;;-145.69;41.72
1726;BME280;41776;48.260;8.928;2023-12-28T05:36:31;52175.06;;;-145.69;41.91
1726;BME280;41776;48.260;8.928;2023-12-28T05:38:57;52182.97;;;-145.69;41.64
1726;BME280;41776;48.260;8.928;2023-12-28T05:41:24;52200.81;;;-145.69;41.65
1726;BME280;41776;48.260;8.928;2023-12-28T05:43:50;52175.06;;;-145.69;41.83
1726;BME280;41776;48.260;8.928;2023-12-28T05:46:17;52186.94;;;-145.69;42.54
1726;BME280;41776;48.260;8.928;2023-12-28T05:48:44;52194.88;;;-145.69;42.27
1726;BME280;41776;48.260;8.928;2023-12-28T05:51:11;52186.94;;;-145.69;41.95
1726;BME280;41776;48.260;8.928;2023-12-28T05:53:37;52190.91;;;-145.69;42.41
1726;BME280;41776;48.260;8.928;2023-12-28T05:56:04;52177.03;;;-145.69;42.14
1726;BME280;41776;48.260;8.928;2023-12-28T05:58:31;52186.94;;;-145.69;42.79
1726;BME280;41776;48.260;8.928;2023-12-28T06:00:57;52161.19;;;-145.69;43.15
1726;BME280;41776;48.260;8.928;2023-12-28T06:03:24;52186.94;;;-145.69;42.89
1726;BME280;41776;48.260;8.928;2023-12-28T06:05:54;52139.41;;;-145.69;42.28
1726;BME280;41776;48.260;8.928;2023-12-28T06:08:21;52212.69;;;-145.69;42.54
1726;BME280;41776;48.260;8.928;2023-12-28T06:10:47;52171.09;;;-145.69;42.72
1726;BME280;41776;48.260;8.928;2023-12-28T06:13:19;52149.31;;;-145.69;43.07
1726;BME280;41776;48.260;8.928;2023-12-28T06:15:45;52149.31;;;-145.69;43.74
1726;BME280;41776;48.260;8.928;2023-12-28T06:18:11;52159.22;;;-145.69;42.67
1726;BME280;41776;48.260;8.928;2023-12-28T06:20:38;52151.28;;;-145.69;43.57
1726;BME280;41776;48.260;8.928;2023-12-28T06:23:07;52151.28;;;-145.69;43.55
1726;BME280;41776;48.260;8.928;2023-12-28T06:25:34;52196.84;;;-145.69;44.07
1726;BME280;41776;48.260;8.928;2023-12-28T06:28:00;52179.03;;;-145.69;43.67
1726;BME280;41776;48.260;8.928;2023-12-28T06:30:26;52179.03;;;-145.69;44.53
1726;BME280;41776;48.260;8.928;2023-12-28T06:32:54;52171.09;;;-145.69;44.63
1726;BME280;41776;48.260;8.928;2023-12-28T06:35:20;52198.81;;;-145.69;44.33
1726;BME280;41776;48.260;8.928;2023-12-28T06:37:47;52167.13;;;-145.69;44.89
1726;BME280;41776;48.260;8.928;2023-12-28T06:40:15;52182.97;;;-145.69;45.02
1726;BME280;41776;48.260;8.928;2023-12-28T06:42:41;52161.19;;;-145.69;44.93
1726;BME280;41776;48.260;8.928;2023-12-28T06:45:09;52175.06;;;-145.69;44.73
1726;BME280;41776;48.260;8.928;2023-12-28T06:47:35;52222.59;;;-145.69;44.75
1726;BME280;41776;48.260;8.928;2023-12-28T06:50:02;52173.09;;;-145.69;44.63
1726;BME280;41776;48.260;8.928;2023-12-28T06:52:29;52171.09;;;-145.69;44.99
1726;BME280;41776;48.260;8.928;2023-12-28T06:54:56;52179.03;;;-145.69;45.22
1726;BME280;41776;48.260;8.928;2023-12-28T06:57:24;52163.19;;;-145.69;44.37
1726;BME280;41776;48.260;8.928;2023-12-28T06:59:51;52181.00;;;-145.69;44.73
1726;BME280;41776;48.260;8.928;2023-12-28T07:02:17;52179.03;;;-145.69;44.57
1726;BME280;41776;48.260;8.928;2023-12-28T07:04:43;52163.19;;;-145.69;44.23
1726;BME280;41776;48.260;8.928;2023-12-28T07:07:10;52194.88;;;-145.69;45.31
1726;BME280;41776;48.260;8.928;2023-12-28T07:09:36;52214.66;;;-145.69;44.77
1726;BME280;41776;48.260;8.928;2023-12-28T07:12:03;52179.03;;;-145.69;44.45
1726;BME280;41776;48.260;8.928;2023-12-28T07:14:31;52206.75;;;-145.69;44.73
1726;BME280;41776;48.260;8.928;2023-12-28T07:16:58;52186.94;;;-145.69;44.51
1726;BME280;41776;48.260;8.928;2023-12-28T07:19:25;52196.84;;;-145.69;44.45
1726;BME280;41776;48.260;8.928;2023-12-28T07:21:51;52163.19;;;-145.69;43.81
1726;BME280;41776;48.260;8.928;2023-12-28T07:24:18;52179.03;;;-145.69;44.17
1726;BME280;41776;48.260;8.928;2023-12-28T07:26:44;52163.19;;;-145.69;44.32
1726;BME280;41776;48.260;8.928;2023-12-28T07:29:10;52157.25;;;-145.69;43.80
1726;BME280;41776;48.260;8.928;2023-12-28T07:31:38;52188.91;;;-145.69;43.66
1726;BME280;41776;48.260;8.928;2023-12-28T07:34:04;52190.91;;;-145.69;43.17
1726;BME280;41776;48.260;8.928;2023-12-28T07:36:32;52135.47;;;-145.69;41.86
1726;BME280;41776;48.260;8.928;2023-12-28T07:38:59;52163.19;;;-145.69;41.80
1726;BME280;41776;48.260;8.928;2023-12-28T07:41:25;52202.78;;;-145.69;42.08
1726;BME280;41776;48.260;8.928;2023-12-28T07:43:51;52190.91;;;-145.69;41.13
1726;BME280;41776;48.260;8.928;2023-12-28T07:46:18;52175.06;;;-145.69;41.08
1726;BME280;41776;48.260;8.928;2023-12-28T07:48:47;52177.03;;;-145.69;41.01
1726;BME280;41776;48.260;8.928;2023-12-28T07:51:13;52171.09;;;-145.69;40.99
1726;BME280;41776;48.260;8.928;2023-12-28T07:53:40;52190.91;;;-145.69;39.84
1726;BME280;41776;48.260;8.928;2023-12-28T07:56:06;52139.41;;;-145.69;39.47
1726;BME280;41776;48.260;8.928;2023-12-28T07:58:33;52159.22;;;-145.69;40.10
1726;BME280;41776;48.260;8.928;2023-12-28T08:00:59;52188.91;;;-145.69;39.82
1726;BME280;41776;48.260;8.928;2023-12-28T08:03:25;52167.13;;;-145.69;39.48
1726;BME280;41776;48.260;8.928;2023-12-28T08:05:53;52167.13;;;-145.69;39.86
1726;BME280;41776;48.260;8.928;2023-12-28T08:08:19;52167.13;;;-145.69;39.39
1726;BME280;41776;48.260;8.928;2023-12-28T08:10:46;52159.22;;;-145.69;39.19
1726;BME280;41776;48.260;8.928;2023-12-28T08:13:12;52155.25;;;-145.69;39.50
1726;BME280;41776;48.260;8.928;2023-12-28T08:15:39;52169.13;;;-145.69;38.93
1726;BME280;41776;48.260;8.928;2023-12-28T08:18:05;52192.88;;;-145.69;39.07
1726;BME280;41776;48.260;8.928;2023-12-28T08:20:31;52167.13;;;-145.69;39.34
1726;BME280;41776;48.260;8.928;2023-12-28T08:22:59;52151.28;;;-145.69;39.04
1726;BME280;41776;48.260;8.928;2023-12-28T08:25:26;52145.34;;;-145.69;39.27
1726;BME280;41776;48.260;8.928;2023-12-28T08:27:52;52190.91;;;-145.69;38.83
1726;BME280;41776;48.260;8.928;2023-12-28T08:30:18;52139.41;;;-145.69;38.78
1726;BME280;41776;48.260;8.928;2023-12-28T08:32:45;52157.25;;;-145.69;38.98
1726;BME280;41776;48.260;8.928;2023-12-28T08:35:11;52159.22;;;-145.69;38.42
1726;BME280;41776;48.260;8.928;2023-12-28T08:37:38;52167.13;;;-145.69;38.80
1726;BME280;41776;48.260;8.928;2023-12-28T08:40:07;52115.66;;;-145.69;38.52
1726;BME280;41776;48.260;8.928;2023-12-28T08:42:34;52163.19;;;-145.69;38.80
1726;BME280;41776;48.260;8.928;2023-12-28T08:45:00;52111.69;;;-145.69;38.53
1726;BME280;41776;48.260;8.928;2023-12-28T08:47:27;52147.34;;;-145.69;38.45
1726;BME280;41776;48.260;8.928;2023-12-28T08:49:53;52137.44;;;-145.69;37.93
1726;BME280;41776;48.260;8.928;2023-12-28T08:52:20;52111.69;;;-145.69;38.06
1726;BME280;41776;48.260;8.928;2023-12-28T08:54:46;52129.50;;;-145.69;38.08
1726;BME280;41776;48.260;8.928;2023-12-28T08:57:14;52139.41;;;-145.69;38.15
1726;BME280;41776;48.260;8.928;2023-12-28T08:59:41;52155.25;;;-145.69;38.30
1726;BME280;41776;48.260;8.928;2023-12-28T09:02:07;52131.50;;;-145.69;38.06
1726;BME280;41776;48.260;8.928;2023-12-28T09:04:34;52171.09;;;-145.69;38.42
1726;BME280;41776;48.260;8.928;2023-12-28T09:07:00;52149.31;;;-145.69;38.52
1726;BME280;41776;48.260;8.928;2023-12-28T09:09:27;52179.03;;;-145.69;38.27
1726;BME280;41776;48.260;8.928;2023-12-28T09:11:53;52198.81;;;-145.69;38.58
1726;BME280;41776;48.260;8.928;2023-12-28T09:14:21;52123.56;;;-145.69;38.91
1726;BME280;41776;48.260;8.928;2023-12-28T09:16:48;52125.56;;;-145.69;39.18
1726;BME280;41776;48.260;8.928;2023-12-28T09:19:14;52147.34;;;-145.69;38.14
1726;BME280;41776;48.260;8.928;2023-12-28T09:21:41;52107.72;;;-145.69;38.93
1726;BME280;41776;48.260;8.928;2023-12-28T09:24:07;52135.47;;;-145.69;38.83
1726;BME280;41776;48.260;8.928;2023-12-28T09:26:34;52151.28;;;-145.69;39.00
1726;BME280;41776;48.260;8.928;2023-12-28T09:29:00;52117.63;;;-145.69;39.65
1726;BME280;41776;48.260;8.928;2023-12-28T09:31:28;52171.09;;;-145.69;40.52
1726;BME280;41776;48.260;8.928;2023-12-28T09:33:54;52131.50;;;-145.69;40.55
1726;BME280;41776;48.260;8.928;2023-12-28T09:36:21;52099.81;;;-145.69;40.80
1726;BME280;41776;48.260;8.928;2023-12-28T09:38:47;52127.53;;;-145.69;40.60
1726;BME280;41776;48.260;8.928;2023-12-28T09:41:15;52157.25;;;-145.69;41.84
1726;BME280;41776;48.260;8.928;2023-12-28T09:43:48;52121.59;;;-145.69;41.35
1726;BME280;41776;48.260;8.928;2023-12-28T09:46:18;52137.44;;;-145.69;41.03
1726;BME280;41776;48.260;8.928;2023-12-28T09:48:45;52143.38;;;-145.69;41.80
1726;BME280;41776;48.260;8.928;2023-12-28T09:51:12;52141.41;;;-145.69;42.18
1726;BME280;41776;48.260;8.928;2023-12-28T09:53:39;52149.31;;;-145.69;42.82
1726;BME280;41776;48.260;8.928;2023-12-28T09:56:06;52109.72;;;-145.69;42.18
1726;BME280;41776;48.260;8.928;2023-12-28T09:58:35;52135.47;;;-145.69;42.49
1726;BME280;41776;48.260;8.928;2023-12-28T10:01:02;52131.50;;;-145.69;42.51
1726;BME280;41776;48.260;8.928;2023-12-28T10:03:29;52127.53;;;-145.69;43.04
1726;BME280;41776;48.260;8.928;2023-12-28T10:05:57;52131.50;;;-145.69;43.08
1726;BME280;41776;48.260;8.928;2023-12-28T10:08:23;52143.38;;;-145.69;42.90
1726;BME280;41776;48.260;8.928;2023-12-28T10:10:50;52143.38;;;-145.69;42.56
1726;BME280;41776;48.260;8.928;2023-12-28T10:13:19;52157.25;;;-145.69;42.92
1726;BME280;41776;48.260;8.928;2023-12-28T10:15:46;52143.38;;;-145.69;42.87
1726;BME280;41776;48.260;8.928;2023-12-28T10:18:12;52131.50;;;-145.69;43.47
1726;BME280;41776;48.260;8.928;2023-12-28T10:20:39;52143.38;;;-145.69;43.26
1726;BME280;41776;48.260;8.928;2023-12-28T10:23:07;52119.63;;;-145.69;43.61
1726;BME280;41776;48.260;8.928;2023-12-28T10:25:35;52139.41;;;-145.69;43.16
1726;BME280;41776;48.260;8.928;2023-12-28T10:28:04;52151.28;;;-145.69;43.35
1726;BME280;41776;48.260;8.928;2023-12-28T10:30:31;52129.50;;;-145.69;43.39
1726;BME280;41776;48.260;8.928;2023-12-28T10:32:57;52099.81;;;-145.69;43.86
1726;BME280;41776;48.260;8.928;2023-12-28T10:35:24;52107.72;;;-145.69;44.02
1726;BME280;41776;48.260;8.928;2023-12-28T10:37:52;52127.53;;;-145.69;44.17
1726;BME280;41776;48.260;8.928;2023-12-28T10:40:21;52117.63;;;-145.69;44.32
1726;BME280;41776;48.260;8.928;2023-12-28T10:42:51;52127.53;;;-145.69;44.53
1726;BME280;41776;48.260;8.928;2023-12-28T10:45:19;52123.56;;;-145.69;45.21
1726;BME280;41776;48.260;8.928;2023-12-28T10:47:54;52113.66;;;-145.69;44.50
1726;BME280;41776;48.260;8.928;2023-12-28T10:50:26;52125.56;;;-145.69;44.55
1726;BME280;41776;48.260;8.928;2023-12-28T10:53:02;52147.34;;;-145.69;44.25
1726;BME280;41776;48.260;8.928;2023-12-28T10:55:39;52111.69;;;-145.69;44.51
1726;BME280;41776;48.260;8.928;2023-12-28T10:58:10;52121.59;;;-145.69;44.45
1726;BME280;41776;48.260;8.928;2023-12-28T11:00:41;52145.34;;;-145.69;44.64
1726;BME280;41776;48.260;8.928;2023-12-28T11:03:15;52125.56;;;-145.69;44.68
1726;BME280;41776;48.260;8.928;2023-12-28T11:05:45;52123.56;;;-145.69;44.64
1726;BME280;41776;48.260;8.928;2023-12-28T11:08:13;52141.41;;;-145.69;44.93
1726;BME280;41776;48.260;8.928;2023-12-28T11:10:42;52113.66;;;-145.69;44.37
1726;BME280;41776;48.260;8.928;2023-12-28T11:13:09;52137.44;;;-145.69;44.30
1726;BME280;41776;48.260;8.928;2023-12-28T11:15:37;52147.34;;;-145.69;43.81
1726;BME280;41776;48.260;8.928;2023-12-28T11:18:04;52119.63;;;-145.69;44.30
1726;BME280;41776;48.260;8.928;2023-12-28T11:20:31;52123.56;;;-145.69;44.55
1726;BME280;41776;48.260;8.928;2023-12-28T11:22:59;52123.56;;;-145.69;44.68
1726;BME280;41776;48.260;8.928;2023-12-28T11:25:30;52080.00;;;-145.69;43.80
1726;BME280;41776;48.260;8.928;2023-12-28T11:27:59;52147.34;;;-145.69;43.04
1726;BME280;41776;48.260;8.928;2023-12-28T11:30:26;52115.66;;;-145.69;43.35
1726;BME280;41776;48.260;8.928;2023-12-28T11:32:56;52103.78;;;-145.69;43.68
1726;BME280;41776;48.260;8.928;2023-12-28T11:35:23;52113.66;;;-145.69;43.00
1726;BME280;41776;48.260;8.928;2023-12-28T11:37:51;52127.53;;;-145.69;43.67
1726;BME280;41776;48.260;8.928;2023-12-28T11:40:20;52103.78;;;-145.69;43.40
1726;BME280;41776;48.260;8.928;2023-12-28T11:42:49;52091.88;;;-145.69;43.06
1726;BME280;41776;48.260;8.928;2023-12-28T11:45:17;52115.66;;;-145.69;43.38
1726;BME280;41776;48.260;8.928;2023-12-28T11:47:44;52123.56;;;-145.69;43.81
1726;BME280;41776;48.260;8.928;2023-12-28T11:50:11;52082.00;;;-145.69;44.58
1726;BME280;41776;48.260;8.928;2023-12-28T11:52:38;52131.50;;;-145.69;44.37
1726;BME280;41776;48.260;8.928;2023-12-28T11:55:05;52127.53;;;-145.69;44.56
1726;BME280;41776;48.260;8.928;2023-12-28T11:57:32;52095.84;;;-145.69;44.34
1726;BME280;41776;48.260;8.928;2023-12-28T11:59:59;52127.53;;;-145.69;44.58
1726;BME280;41776;48.260;8.928;2023-12-28T12:02:27;52123.56;;;-145.69;44.29
1726;BME280;41776;48.260;8.928;2023-12-28T12:04:54;52135.47;;;-145.69;44.54
1726;BME280;41776;48.260;8.928;2023-12-28T12:07:23;52115.66;;;-145.69;44.67
1726;BME280;41776;48.260;8.928;2023-12-28T12:09:55;52135.47;;;-145.69;45.44
1726;BME280;41776;48.260;8.928;2023-12-28T12:12:21;52131.50;;;-145.69;45.64
1726;BME280;41776;48.260;8.928;2023-12-28T12:14:48;52135.47;;;-145.69;45.77
1726;BME280;41776;48.260;8.928;2023-12-28T12:17:14;52127.53;;;-145.69;46.08
1726;BME280;41776;48.260;8.928;2023-12-28T12:19:43;52131.50;;;-145.69;45.70
1726;BME280;41776;48.260;8.928;2023-12-28T12:22:10;52131.50;;;-145.69;45.80
1726;BME280;41776;48.260;8.928;2023-12-28T12:24:38;52137.44;;;-145.69;46.03
1726;BME280;41776;48.260;8.928;2023-12-28T12:27:07;52103.78;;;-145.69;46.00
1726;BME280;41776;48.260;8.928;2023-12-28T12:29:34;52091.88;;;-145.69;45.97
1726;BME280;41776;48.260;8.928;2023-12-28T12:32:00;52097.84;;;-145.69;45.82
1726;BME280;41776;48.260;8.928;2023-12-28T12:34:28;52119.63;;;-145.69;45.80
1726;BME280;41776;48.260;8.928;2023-12-28T12:36:56;52127.53;;;-145.69;45.41
1726;BME280;41776;48.260;8.928;2023-12-28T12:39:24;52129.50;;;-145.69;45.61
1726;BME280;41776;48.260;8.928;2023-12-28T12:41:50;52123.56;;;-145.69;45.51
1726;BME280;41776;48.260;8.928;2023-12-28T12:44:19;52095.84;;;-145.69;45.70
1726;BME280;41776;48.260;8.928;2023-12-28T12:46:45;52107.72;;;-145.69;45.30
1726;BME280;41776;48.260;8.928;2023-12-28T12:49:12;52131.50;;;-145.69;45.54